Terminal Aerodrome Forecast
Issued by NWS Sterling, VA

Home | Current Version | Previous Version | Text Only | Print | Product List | Glossary On
Versions: 1 2 3 4 5 6 7 8 9 10 11 12
851
FTUS41 KLWX 072339
TAFMRB
TAF
KMRB 072339Z 0800/0824 VRB03KT P6SM BKN250
     FM081800 13005KT P6SM -SN OVC045
     FM082000 12005KT 1SM -SN OVC025
     FM082200 12005KT 3/4SM -SN OVC015
     FM082300 12005KT 1/2SM SN OVC008=

USA.gov is the U.S. government's official web portal to all federal, state and local government web resources and services.